Blountstown, Florida
Current Conditions -  °F | °C
As of 7:53 AM on Monday 20 Oct 2014 (Local Time) from KMAI Reporting Station
Light Rain Light Rain  
Wind Chill: 55°   Ceiling: Unl
Heat Index: 55°   Visibility: 10mi
Dew Point: 54°   Wind: 5mph
Humidity: 96%   Direction: 70°ENE
Pressure: 30.07"   Gusts: NA
Location:  30.44°N, 85.05°W
Report Text: KMAI 201253Z AUTO 07004KT 10SM -RA CLR 13/12 A3007 RMK AO2 SLP183 P0000 T01280122 $
Loading
Personal Weather Stations






























Interactive Weather Map
Tropical Storm Tracking
New forecast layout! Learn more

10-Day Weather Forecast

Advertisements
Track Severe Weather on mobile